sensor_id;sensor_type;location;lat;lon;timestamp;P1;durP1;ratioP1;P2;durP2;ratioP2
15814;SDS011;8008;50.024;8.172;2022-08-19T03:00:22;13.02;;;11.35;;
15814;SDS011;8008;50.024;8.172;2022-08-19T03:02:50;12.30;;;11.05;;
15814;SDS011;8008;50.024;8.172;2022-08-19T03:05:18;14.30;;;12.13;;
15814;SDS011;8008;50.024;8.172;2022-08-19T03:08:07;12.98;;;11.23;;
15814;SDS011;8008;50.024;8.172;2022-08-19T03:10:41;13.60;;;11.05;;
15814;SDS011;8008;50.024;8.172;2022-08-19T03:13:12;14.25;;;11.45;;
15814;SDS011;8008;50.024;8.172;2022-08-19T03:15:43;13.15;;;10.95;;
15814;SDS011;8008;50.024;8.172;2022-08-19T03:18:12;13.18;;;11.75;;
15814;SDS011;8008;50.024;8.172;2022-08-19T03:20:43;12.18;;;10.88;;
15814;SDS011;8008;50.024;8.172;2022-08-19T03:23:13;14.13;;;11.95;;
15814;SDS011;8008;50.024;8.172;2022-08-19T03:25:44;13.32;;;11.93;;
15814;SDS011;8008;50.024;8.172;2022-08-19T03:28:33;13.98;;;10.98;;
15814;SDS011;8008;50.024;8.172;2022-08-19T03:31:04;12.77;;;11.48;;
15814;SDS011;8008;50.024;8.172;2022-08-19T03:33:54;14.75;;;11.80;;
15814;SDS011;8008;50.024;8.172;2022-08-19T03:36:24;15.10;;;11.93;;
15814;SDS011;8008;50.024;8.172;2022-08-19T03:38:55;13.25;;;10.82;;
15814;SDS011;8008;50.024;8.172;2022-08-19T03:41:26;14.85;;;12.18;;
15814;SDS011;8008;50.024;8.172;2022-08-19T03:44:11;14.13;;;11.75;;
15814;SDS011;8008;50.024;8.172;2022-08-19T03:46:45;12.77;;;11.18;;
15814;SDS011;8008;50.024;8.172;2022-08-19T03:49:15;13.60;;;11.65;;
15814;SDS011;8008;50.024;8.172;2022-08-19T03:51:45;14.23;;;11.13;;
15814;SDS011;8008;50.024;8.172;2022-08-19T03:54:15;15.00;;;11.98;;
15814;SDS011;8008;50.024;8.172;2022-08-19T03:56:45;11.45;;;10.25;;
15814;SDS011;8008;50.024;8.172;2022-08-19T03:59:17;12.25;;;11.02;;
15814;SDS011;8008;50.024;8.172;2022-08-19T04:01:47;13.10;;;11.55;;
15814;SDS011;8008;50.024;8.172;2022-08-19T04:04:15;13.38;;;11.48;;
15814;SDS011;8008;50.024;8.172;2022-08-19T04:06:45;14.50;;;11.57;;
15814;SDS011;8008;50.024;8.172;2022-08-19T04:09:14;13.18;;;11.65;;
15814;SDS011;8008;50.024;8.172;2022-08-19T04:11:42;12.52;;;11.20;;
15814;SDS011;8008;50.024;8.172;2022-08-19T04:14:14;13.52;;;12.13;;
15814;SDS011;8008;50.024;8.172;2022-08-19T04:16:44;14.38;;;12.90;;
15814;SDS011;8008;50.024;8.172;2022-08-19T04:19:14;13.98;;;11.95;;
15814;SDS011;8008;50.024;8.172;2022-08-19T04:21:44;13.55;;;11.95;;
15814;SDS011;8008;50.024;8.172;2022-08-19T04:24:15;15.55;;;12.43;;
15814;SDS011;8008;50.024;8.172;2022-08-19T04:26:43;14.02;;;11.80;;
15814;SDS011;8008;50.024;8.172;2022-08-19T04:29:12;14.63;;;12.77;;
15814;SDS011;8008;50.024;8.172;2022-08-19T04:31:42;14.27;;;11.52;;
15814;SDS011;8008;50.024;8.172;2022-08-19T04:34:12;13.88;;;11.93;;
15814;SDS011;8008;50.024;8.172;2022-08-19T04:36:44;13.45;;;12.02;;
15814;SDS011;8008;50.024;8.172;2022-08-19T04:39:13;12.38;;;11.13;;
15814;SDS011;8008;50.024;8.172;2022-08-19T04:41:43;13.13;;;10.98;;
15814;SDS011;8008;50.024;8.172;2022-08-19T04:44:29;13.07;;;11.43;;
15814;SDS011;8008;50.024;8.172;2022-08-19T04:46:58;12.75;;;11.45;;
15814;SDS011;8008;50.024;8.172;2022-08-19T04:49:28;12.88;;;11.48;;
15814;SDS011;8008;50.024;8.172;2022-08-19T04:51:56;13.73;;;12.07;;
15814;SDS011;8008;50.024;8.172;2022-08-19T04:54:24;13.25;;;11.95;;
15814;SDS011;8008;50.024;8.172;2022-08-19T04:57:04;15.20;;;12.30;;
15814;SDS011;8008;50.024;8.172;2022-08-19T04:59:35;14.02;;;12.27;;
15814;SDS011;8008;50.024;8.172;2022-08-19T05:02:04;13.73;;;12.27;;
15814;SDS011;8008;50.024;8.172;2022-08-19T05:04:35;14.73;;;12.73;;
15814;SDS011;8008;50.024;8.172;2022-08-19T05:07:05;16.92;;;12.98;;
15814;SDS011;8008;50.024;8.172;2022-08-19T05:09:33;15.95;;;12.90;;
15814;SDS011;8008;50.024;8.172;2022-08-19T05:12:21;17.92;;;13.35;;
15814;SDS011;8008;50.024;8.172;2022-08-19T05:14:54;17.90;;;14.45;;
15814;SDS011;8008;50.024;8.172;2022-08-19T05:17:23;15.48;;;13.52;;
15814;SDS011;8008;50.024;8.172;2022-08-19T05:19:56;17.17;;;13.98;;
15814;SDS011;8008;50.024;8.172;2022-08-19T05:22:43;16.48;;;14.27;;
15814;SDS011;8008;50.024;8.172;2022-08-19T05:25:14;16.92;;;14.50;;
15814;SDS011;8008;50.024;8.172;2022-08-19T05:27:44;17.63;;;13.90;;
15814;SDS011;8008;50.024;8.172;2022-08-19T05:30:12;14.95;;;13.38;;
15814;SDS011;8008;50.024;8.172;2022-08-19T05:32:41;16.52;;;14.35;;
15814;SDS011;8008;50.024;8.172;2022-08-19T05:35:10;21.00;;;14.75;;
15814;SDS011;8008;50.024;8.172;2022-08-19T05:37:38;16.17;;;14.07;;
15814;SDS011;8008;50.024;8.172;2022-08-19T05:40:07;21.50;;;14.85;;
15814;SDS011;8008;50.024;8.172;2022-08-19T05:42:36;16.42;;;14.55;;
15814;SDS011;8008;50.024;8.172;2022-08-19T05:45:05;17.17;;;14.93;;
15814;SDS011;8008;50.024;8.172;2022-08-19T05:47:34;17.50;;;14.60;;
15814;SDS011;8008;50.024;8.172;2022-08-19T05:50:07;15.85;;;13.90;;
15814;SDS011;8008;50.024;8.172;2022-08-19T05:52:37;17.35;;;13.98;;
15814;SDS011;8008;50.024;8.172;2022-08-19T05:55:15;17.80;;;13.88;;
15814;SDS011;8008;50.024;8.172;2022-08-19T05:57:43;14.40;;;12.82;;
15814;SDS011;8008;50.024;8.172;2022-08-19T06:00:11;14.43;;;12.57;;
15814;SDS011;8008;50.024;8.172;2022-08-19T06:02:40;16.30;;;13.68;;
15814;SDS011;8008;50.024;8.172;2022-08-19T06:05:08;15.90;;;13.23;;
15814;SDS011;8008;50.024;8.172;2022-08-19T06:07:38;17.05;;;13.95;;
15814;SDS011;8008;50.024;8.172;2022-08-19T06:10:07;16.77;;;13.07;;
15814;SDS011;8008;50.024;8.172;2022-08-19T06:12:37;13.80;;;12.23;;
15814;SDS011;8008;50.024;8.172;2022-08-19T06:15:06;17.15;;;14.00;;
15814;SDS011;8008;50.024;8.172;2022-08-19T06:17:36;15.77;;;12.95;;
15814;SDS011;8008;50.024;8.172;2022-08-19T06:20:04;14.05;;;12.52;;
15814;SDS011;8008;50.024;8.172;2022-08-19T06:22:37;13.93;;;11.88;;
15814;SDS011;8008;50.024;8.172;2022-08-19T06:25:07;14.90;;;12.05;;
15814;SDS011;8008;50.024;8.172;2022-08-19T06:27:36;11.68;;;10.50;;
15814;SDS011;8008;50.024;8.172;2022-08-19T06:30:24;13.85;;;10.57;;
15814;SDS011;8008;50.024;8.172;2022-08-19T06:32:52;12.13;;;9.70;;
15814;SDS011;8008;50.024;8.172;2022-08-19T06:35:20;15.30;;;10.90;;
15814;SDS011;8008;50.024;8.172;2022-08-19T06:37:49;11.60;;;10.40;;
15814;SDS011;8008;50.024;8.172;2022-08-19T06:40:18;11.23;;;9.98;;
15814;SDS011;8008;50.024;8.172;2022-08-19T06:42:46;10.75;;;9.70;;
15814;SDS011;8008;50.024;8.172;2022-08-19T06:45:19;10.38;;;9.30;;
15814;SDS011;8008;50.024;8.172;2022-08-19T06:47:50;9.85;;;8.45;;
15814;SDS011;8008;50.024;8.172;2022-08-19T06:50:22;9.70;;;8.70;;
15814;SDS011;8008;50.024;8.172;2022-08-19T06:52:51;9.73;;;8.50;;
15814;SDS011;8008;50.024;8.172;2022-08-19T06:55:20;10.00;;;8.20;;
15814;SDS011;8008;50.024;8.172;2022-08-19T06:57:49;8.32;;;7.20;;
15814;SDS011;8008;50.024;8.172;2022-08-19T07:00:20;9.52;;;8.00;;
15814;SDS011;8008;50.024;8.172;2022-08-19T07:02:48;9.30;;;7.85;;
15814;SDS011;8008;50.024;8.172;2022-08-19T07:05:22;9.35;;;7.90;;
15814;SDS011;8008;50.024;8.172;2022-08-19T07:07:51;9.70;;;7.75;;
15814;SDS011;8008;50.024;8.172;2022-08-19T07:10:23;8.63;;;7.18;;
15814;SDS011;8008;50.024;8.172;2022-08-19T07:12:51;9.63;;;7.47;;
15814;SDS011;8008;50.024;8.172;2022-08-19T07:15:20;9.07;;;8.18;;
15814;SDS011;8008;50.024;8.172;2022-08-19T07:17:49;13.25;;;9.07;;
15814;SDS011;8008;50.024;8.172;2022-08-19T07:20:18;8.85;;;7.95;;
15814;SDS011;8008;50.024;8.172;2022-08-19T07:22:46;10.02;;;8.90;;
15814;SDS011;8008;50.024;8.172;2022-08-19T07:25:15;11.75;;;8.95;;
15814;SDS011;8008;50.024;8.172;2022-08-19T07:27:44;10.65;;;8.63;;
15814;SDS011;8008;50.024;8.172;2022-08-19T07:30:19;9.82;;;8.63;;
15814;SDS011;8008;50.024;8.172;2022-08-19T07:32:51;12.13;;;9.20;;
15814;SDS011;8008;50.024;8.172;2022-08-19T07:35:19;12.90;;;9.77;;
15814;SDS011;8008;50.024;8.172;2022-08-19T07:37:48;13.30;;;10.40;;
15814;SDS011;8008;50.024;8.172;2022-08-19T07:40:17;9.40;;;8.45;;
15814;SDS011;8008;50.024;8.172;2022-08-19T07:42:45;10.10;;;8.95;;
15814;SDS011;8008;50.024;8.172;2022-08-19T07:45:13;14.63;;;10.30;;
15814;SDS011;8008;50.024;8.172;2022-08-19T07:47:42;11.32;;;8.95;;
15814;SDS011;8008;50.024;8.172;2022-08-19T07:50:16;13.57;;;10.95;;
15814;SDS011;8008;50.024;8.172;2022-08-19T07:52:46;19.52;;;12.45;;
15814;SDS011;8008;50.024;8.172;2022-08-19T07:55:17;18.52;;;13.85;;
15814;SDS011;8008;50.024;8.172;2022-08-19T07:58:07;16.98;;;12.48;;
15814;SDS011;8008;50.024;8.172;2022-08-19T08:00:35;18.60;;;13.25;;
15814;SDS011;8008;50.024;8.172;2022-08-19T08:03:03;19.67;;;15.40;;
15814;SDS011;8008;50.024;8.172;2022-08-19T08:05:31;16.77;;;14.63;;
15814;SDS011;8008;50.024;8.172;2022-08-19T08:08:17;19.73;;;15.85;;
15814;SDS011;8008;50.024;8.172;2022-08-19T08:11:11;22.90;;;19.15;;
15814;SDS011;8008;50.024;8.172;2022-08-19T08:13:41;20.30;;;15.88;;
15814;SDS011;8008;50.024;8.172;2022-08-19T08:16:09;18.70;;;15.75;;
15814;SDS011;8008;50.024;8.172;2022-08-19T08:18:40;16.73;;;13.25;;
15814;SDS011;8008;50.024;8.172;2022-08-19T08:21:15;18.65;;;14.75;;
15814;SDS011;8008;50.024;8.172;2022-08-19T08:23:43;18.85;;;16.35;;
15814;SDS011;8008;50.024;8.172;2022-08-19T08:26:13;19.45;;;16.25;;
15814;SDS011;8008;50.024;8.172;2022-08-19T08:28:44;19.73;;;14.95;;
15814;SDS011;8008;50.024;8.172;2022-08-19T08:31:14;15.85;;;13.55;;
15814;SDS011;8008;50.024;8.172;2022-08-19T08:33:45;18.60;;;14.05;;
15814;SDS011;8008;50.024;8.172;2022-08-19T08:36:15;14.82;;;12.40;;
15814;SDS011;8008;50.024;8.172;2022-08-19T08:38:43;13.25;;;11.95;;
15814;SDS011;8008;50.024;8.172;2022-08-19T08:41:16;14.63;;;10.60;;
15814;SDS011;8008;50.024;8.172;2022-08-19T08:43:49;11.10;;;10.00;;
15814;SDS011;8008;50.024;8.172;2022-08-19T08:46:21;12.18;;;10.90;;
15814;SDS011;8008;50.024;8.172;2022-08-19T08:48:59;14.13;;;11.50;;
15814;SDS011;8008;50.024;8.172;2022-08-19T08:51:37;15.30;;;12.18;;
15814;SDS011;8008;50.024;8.172;2022-08-19T08:54:14;12.68;;;9.85;;
15814;SDS011;8008;50.024;8.172;2022-08-19T08:56:46;12.43;;;10.82;;
15814;SDS011;8008;50.024;8.172;2022-08-19T08:59:19;14.98;;;11.43;;
15814;SDS011;8008;50.024;8.172;2022-08-19T09:01:49;13.57;;;10.77;;
15814;SDS011;8008;50.024;8.172;2022-08-19T09:04:17;15.60;;;11.75;;
15814;SDS011;8008;50.024;8.172;2022-08-19T09:06:48;12.38;;;10.88;;
15814;SDS011;8008;50.024;8.172;2022-08-19T09:09:23;13.32;;;11.85;;
15814;SDS011;8008;50.024;8.172;2022-08-19T09:12:03;12.23;;;11.05;;
15814;SDS011;8008;50.024;8.172;2022-08-19T09:14:39;14.55;;;13.05;;
15814;SDS011;8008;50.024;8.172;2022-08-19T09:17:18;17.50;;;15.70;;
15814;SDS011;8008;50.024;8.172;2022-08-19T09:19:57;16.17;;;14.57;;
15814;SDS011;8008;50.024;8.172;2022-08-19T09:22:27;15.27;;;13.75;;
15814;SDS011;8008;50.024;8.172;2022-08-19T09:24:55;15.98;;;14.27;;
15814;SDS011;8008;50.024;8.172;2022-08-19T09:27:25;15.45;;;13.90;;
15814;SDS011;8008;50.024;8.172;2022-08-19T09:30:08;15.65;;;14.15;;
15814;SDS011;8008;50.024;8.172;2022-08-19T09:32:39;14.25;;;12.85;;
15814;SDS011;8008;50.024;8.172;2022-08-19T09:35:09;14.07;;;12.68;;
15814;SDS011;8008;50.024;8.172;2022-08-19T09:37:37;12.73;;;11.32;;
15814;SDS011;8008;50.024;8.172;2022-08-19T09:40:06;14.52;;;13.02;;
15814;SDS011;8008;50.024;8.172;2022-08-19T09:42:38;13.65;;;12.20;;
15814;SDS011;8008;50.024;8.172;2022-08-19T09:45:18;13.48;;;12.05;;
15814;SDS011;8008;50.024;8.172;2022-08-19T09:47:48;12.43;;;11.25;;
15814;SDS011;8008;50.024;8.172;2022-08-19T09:50:20;12.13;;;10.93;;
15814;SDS011;8008;50.024;8.172;2022-08-19T09:52:49;12.90;;;11.10;;
15814;SDS011;8008;50.024;8.172;2022-08-19T09:55:23;12.07;;;10.07;;
15814;SDS011;8008;50.024;8.172;2022-08-19T09:57:58;11.43;;;9.80;;
15814;SDS011;8008;50.024;8.172;2022-08-19T10:00:27;10.80;;;9.00;;
15814;SDS011;8008;50.024;8.172;2022-08-19T10:02:56;8.70;;;7.53;;
15814;SDS011;8008;50.024;8.172;2022-08-19T10:05:24;8.57;;;7.65;;
15814;SDS011;8008;50.024;8.172;2022-08-19T10:08:14;8.55;;;7.75;;
15814;SDS011;8008;50.024;8.172;2022-08-19T10:10:47;8.07;;;7.32;;
15814;SDS011;8008;50.024;8.172;2022-08-19T10:13:18;9.00;;;8.10;;
15814;SDS011;8008;50.024;8.172;2022-08-19T10:15:52;8.50;;;7.70;;
15814;SDS011;8008;50.024;8.172;2022-08-19T10:18:22;8.10;;;7.40;;
15814;SDS011;8008;50.024;8.172;2022-08-19T10:20:51;7.68;;;7.00;;
15814;SDS011;8008;50.024;8.172;2022-08-19T10:23:29;12.20;;;10.90;;
15814;SDS011;8008;50.024;8.172;2022-08-19T10:26:00;8.30;;;7.45;;
15814;SDS011;8008;50.024;8.172;2022-08-19T10:28:31;9.30;;;8.00;;
15814;SDS011;8008;50.024;8.172;2022-08-19T10:31:04;9.10;;;8.30;;
15814;SDS011;8008;50.024;8.172;2022-08-19T10:33:33;8.20;;;7.38;;
15814;SDS011;8008;50.024;8.172;2022-08-19T10:36:19;8.55;;;7.75;;
15814;SDS011;8008;50.024;8.172;2022-08-19T10:38:51;8.95;;;7.88;;
15814;SDS011;8008;50.024;8.172;2022-08-19T10:41:25;7.65;;;6.90;;
15814;SDS011;8008;50.024;8.172;2022-08-19T10:43:56;7.60;;;6.90;;
15814;SDS011;8008;50.024;8.172;2022-08-19T10:46:29;7.57;;;6.88;;
15814;SDS011;8008;50.024;8.172;2022-08-19T10:48:58;7.88;;;7.07;;
15814;SDS011;8008;50.024;8.172;2022-08-19T10:51:27;7.63;;;6.93;;
15814;SDS011;8008;50.024;8.172;2022-08-19T10:54:14;7.60;;;6.78;;
15814;SDS011;8008;50.024;8.172;2022-08-19T10:56:56;7.13;;;6.43;;
15814;SDS011;8008;50.024;8.172;2022-08-19T10:59:25;7.97;;;7.18;;
15814;SDS011;8008;50.024;8.172;2022-08-19T11:02:01;7.80;;;7.10;;
15814;SDS011;8008;50.024;8.172;2022-08-19T11:04:31;7.68;;;6.97;;
15814;SDS011;8008;50.024;8.172;2022-08-19T11:07:01;7.35;;;6.43;;
15814;SDS011;8008;50.024;8.172;2022-08-19T11:09:29;7.57;;;6.55;;
15814;SDS011;8008;50.024;8.172;2022-08-19T11:11:59;7.90;;;6.75;;
15814;SDS011;8008;50.024;8.172;2022-08-19T11:14:31;7.65;;;6.85;;
15814;SDS011;8008;50.024;8.172;2022-08-19T11:17:00;7.70;;;6.43;;
15814;SDS011;8008;50.024;8.172;2022-08-19T11:19:29;7.68;;;6.95;;
15814;SDS011;8008;50.024;8.172;2022-08-19T11:21:57;7.53;;;6.88;;
15814;SDS011;8008;50.024;8.172;2022-08-19T11:24:29;7.10;;;6.50;;
15814;SDS011;8008;50.024;8.172;2022-08-19T11:27:02;7.70;;;7.00;;
15814;SDS011;8008;50.024;8.172;2022-08-19T11:29:33;7.80;;;7.10;;
15814;SDS011;8008;50.024;8.172;2022-08-19T11:32:03;7.85;;;7.13;;
15814;SDS011;8008;50.024;8.172;2022-08-19T11:34:32;7.50;;;6.90;;
15814;SDS011;8008;50.024;8.172;2022-08-19T11:37:01;6.78;;;6.22;;
15814;SDS011;8008;50.024;8.172;2022-08-19T11:39:32;7.90;;;7.20;;
15814;SDS011;8008;50.024;8.172;2022-08-19T11:42:02;8.43;;;7.63;;
15814;SDS011;8008;50.024;8.172;2022-08-19T11:44:53;8.93;;;7.82;;
15814;SDS011;8008;50.024;8.172;2022-08-19T11:47:21;11.52;;;8.80;;
15814;SDS011;8008;50.024;8.172;2022-08-19T11:49:50;8.60;;;7.80;;
15814;SDS011;8008;50.024;8.172;2022-08-19T11:52:19;8.80;;;7.90;;
15814;SDS011;8008;50.024;8.172;2022-08-19T11:54:47;8.23;;;7.45;;
15814;SDS011;8008;50.024;8.172;2022-08-19T11:57:15;8.80;;;7.32;;
15814;SDS011;8008;50.024;8.172;2022-08-19T11:59:47;8.07;;;7.32;;
15814;SDS011;8008;50.024;8.172;2022-08-19T12:02:18;7.57;;;6.88;;
15814;SDS011;8008;50.024;8.172;2022-08-19T12:04:46;7.50;;;6.85;;
15814;SDS011;8008;50.024;8.172;2022-08-19T12:07:14;6.88;;;6.13;;
15814;SDS011;8008;50.024;8.172;2022-08-19T12:09:42;6.85;;;6.25;;
15814;SDS011;8008;50.024;8.172;2022-08-19T12:12:13;7.00;;;6.30;;
15814;SDS011;8008;50.024;8.172;2022-08-19T12:14:41;6.22;;;5.72;;
15814;SDS011;8008;50.024;8.172;2022-08-19T12:17:09;6.75;;;6.15;;
15814;SDS011;8008;50.024;8.172;2022-08-19T12:19:40;7.25;;;6.55;;
15814;SDS011;8008;50.024;8.172;2022-08-19T12:22:08;7.70;;;7.00;;
15814;SDS011;8008;50.024;8.172;2022-08-19T12:24:36;8.10;;;7.30;;
15814;SDS011;8008;50.024;8.172;2022-08-19T12:27:04;7.43;;;6.75;;
15814;SDS011;8008;50.024;8.172;2022-08-19T12:29:38;6.85;;;6.15;;
15814;SDS011;8008;50.024;8.172;2022-08-19T12:32:07;7.18;;;6.18;;
15814;SDS011;8008;50.024;8.172;2022-08-19T12:34:37;6.75;;;6.15;;
15814;SDS011;8008;50.024;8.172;2022-08-19T12:37:07;7.88;;;7.18;;
15814;SDS011;8008;50.024;8.172;2022-08-19T12:39:37;6.28;;;5.68;;
15814;SDS011;8008;50.024;8.172;2022-08-19T12:42:08;5.93;;;5.13;;
15814;SDS011;8008;50.024;8.172;2022-08-19T12:44:37;5.95;;;5.20;;
15814;SDS011;8008;50.024;8.172;2022-08-19T12:47:08;5.82;;;5.32;;
15814;SDS011;8008;50.024;8.172;2022-08-19T12:49:40;5.70;;;5.20;;
15814;SDS011;8008;50.024;8.172;2022-08-19T12:52:22;5.55;;;5.05;;
15814;SDS011;8008;50.024;8.172;2022-08-19T12:54:51;5.28;;;4.88;;
15814;SDS011;8008;50.024;8.172;2022-08-19T12:57:21;5.57;;;5.00;;
15814;SDS011;8008;50.024;8.172;2022-08-19T12:59:59;5.75;;;5.13;;
15814;SDS011;8008;50.024;8.172;2022-08-19T13:02:31;5.35;;;4.50;;
15814;SDS011;8008;50.024;8.172;2022-08-19T13:05:05;5.43;;;4.93;;
15814;SDS011;8008;50.024;8.172;2022-08-19T13:07:36;5.00;;;4.50;;
15814;SDS011;8008;50.024;8.172;2022-08-19T13:10:06;4.47;;;4.07;;
15814;SDS011;8008;50.024;8.172;2022-08-19T13:12:35;4.82;;;4.32;;
15814;SDS011;8008;50.024;8.172;2022-08-19T13:15:03;5.38;;;4.95;;
15814;SDS011;8008;50.024;8.172;2022-08-19T13:17:36;4.82;;;4.43;;
15814;SDS011;8008;50.024;8.172;2022-08-19T13:20:06;4.45;;;4.05;;
15814;SDS011;8008;50.024;8.172;2022-08-19T13:22:36;4.38;;;3.97;;
15814;SDS011;8008;50.024;8.172;2022-08-19T13:25:06;5.50;;;5.00;;
15814;SDS011;8008;50.024;8.172;2022-08-19T13:27:34;5.82;;;5.30;;
15814;SDS011;8008;50.024;8.172;2022-08-19T13:30:03;7.47;;;4.90;;
15814;SDS011;8008;50.024;8.172;2022-08-19T13:32:51;3.97;;;3.67;;
15814;SDS011;8008;50.024;8.172;2022-08-19T13:35:36;4.30;;;3.88;;
15814;SDS011;8008;50.024;8.172;2022-08-19T13:38:06;4.10;;;3.70;;
15814;SDS011;8008;50.024;8.172;2022-08-19T13:40:37;3.85;;;3.15;;
15814;SDS011;8008;50.024;8.172;2022-08-19T13:43:07;3.28;;;3.08;;
15814;SDS011;8008;50.024;8.172;2022-08-19T13:45:49;3.72;;;3.42;;
15814;SDS011;8008;50.024;8.172;2022-08-19T13:48:18;4.47;;;3.60;;
15814;SDS011;8008;50.024;8.172;2022-08-19T13:50:46;3.90;;;3.60;;
15814;SDS011;8008;50.024;8.172;2022-08-19T13:53:16;5.45;;;3.65;;
15814;SDS011;8008;50.024;8.172;2022-08-19T13:55:44;3.55;;;3.25;;
15814;SDS011;8008;50.024;8.172;2022-08-19T13:58:12;3.75;;;3.45;;
15814;SDS011;8008;50.024;8.172;2022-08-19T14:00:41;4.60;;;4.13;;
15814;SDS011;8008;50.024;8.172;2022-08-19T14:03:11;4.97;;;4.30;;
15814;SDS011;8008;50.024;8.172;2022-08-19T14:05:39;6.53;;;4.40;;
15814;SDS011;8008;50.024;8.172;2022-08-19T14:08:07;5.05;;;4.63;;
15814;SDS011;8008;50.024;8.172;2022-08-19T14:10:37;4.43;;;4.10;;
15814;SDS011;8008;50.024;8.172;2022-08-19T14:13:05;4.53;;;3.97;;
15814;SDS011;8008;50.024;8.172;2022-08-19T14:15:33;5.63;;;4.05;;
15814;SDS011;8008;50.024;8.172;2022-08-19T14:18:01;7.80;;;3.95;;
15814;SDS011;8008;50.024;8.172;2022-08-19T14:20:29;3.80;;;3.50;;
15814;SDS011;8008;50.024;8.172;2022-08-19T14:22:57;4.50;;;3.60;;
15814;SDS011;8008;50.024;8.172;2022-08-19T14:25:26;3.80;;;3.50;;
15814;SDS011;8008;50.024;8.172;2022-08-19T14:27:57;5.88;;;4.03;;
15814;SDS011;8008;50.024;8.172;2022-08-19T14:30:26;4.15;;;3.78;;
15814;SDS011;8008;50.024;8.172;2022-08-19T14:32:56;4.40;;;4.00;;
15814;SDS011;8008;50.024;8.172;2022-08-19T14:35:25;4.40;;;4.00;;
15814;SDS011;8008;50.024;8.172;2022-08-19T14:37:54;6.00;;;4.35;;
15814;SDS011;8008;50.024;8.172;2022-08-19T14:40:25;4.43;;;4.03;;
15814;SDS011;8008;50.024;8.172;2022-08-19T14:42:57;5.57;;;4.97;;
15814;SDS011;8008;50.024;8.172;2022-08-19T14:45:30;5.35;;;4.85;;
15814;SDS011;8008;50.024;8.172;2022-08-19T14:47:59;5.20;;;4.55;;
15814;SDS011;8008;50.024;8.172;2022-08-19T14:50:27;4.82;;;4.45;;
15814;SDS011;8008;50.024;8.172;2022-08-19T14:52:58;5.30;;;4.90;;
15814;SDS011;8008;50.024;8.172;2022-08-19T14:55:40;5.32;;;4.63;;
15814;SDS011;8008;50.024;8.172;2022-08-19T14:58:10;6.03;;;4.53;;
15814;SDS011;8008;50.024;8.172;2022-08-19T15:00:55;6.05;;;5.07;;
15814;SDS011;8008;50.024;8.172;2022-08-19T15:03:25;5.15;;;4.40;;
15814;SDS011;8008;50.024;8.172;2022-08-19T15:05:53;4.65;;;4.20;;
15814;SDS011;8008;50.024;8.172;2022-08-19T15:08:22;5.10;;;4.47;;
15814;SDS011;8008;50.024;8.172;2022-08-19T15:10:51;4.60;;;4.20;;
15814;SDS011;8008;50.024;8.172;2022-08-19T15:13:20;5.68;;;4.32;;
15814;SDS011;8008;50.024;8.172;2022-08-19T15:15:48;4.55;;;4.20;;
15814;SDS011;8008;50.024;8.172;2022-08-19T15:18:17;4.80;;;4.00;;
15814;SDS011;8008;50.024;8.172;2022-08-19T15:20:46;4.47;;;4.18;;
15814;SDS011;8008;50.024;8.172;2022-08-19T15:23:15;4.50;;;4.20;;
15814;SDS011;8008;50.024;8.172;2022-08-19T15:25:44;5.13;;;4.40;;
15814;SDS011;8008;50.024;8.172;2022-08-19T15:28:13;5.28;;;4.70;;
15814;SDS011;8008;50.024;8.172;2022-08-19T15:30:43;5.40;;;4.88;;
15814;SDS011;8008;50.024;8.172;2022-08-19T15:33:12;6.40;;;5.05;;
15814;SDS011;8008;50.024;8.172;2022-08-19T15:35:41;5.25;;;4.85;;
15814;SDS011;8008;50.024;8.172;2022-08-19T15:38:10;5.38;;;4.88;;
15814;SDS011;8008;50.024;8.172;2022-08-19T15:40:39;8.10;;;5.72;;
15814;SDS011;8008;50.024;8.172;2022-08-19T15:43:07;5.18;;;4.78;;
15814;SDS011;8008;50.024;8.172;2022-08-19T15:45:35;5.82;;;5.22;;
15814;SDS011;8008;50.024;8.172;2022-08-19T15:48:06;6.07;;;5.57;;
15814;SDS011;8008;50.024;8.172;2022-08-19T15:50:34;6.13;;;5.63;;
15814;SDS011;8008;50.024;8.172;2022-08-19T15:53:04;6.38;;;5.72;;
15814;SDS011;8008;50.024;8.172;2022-08-19T15:55:35;7.05;;;6.28;;
15814;SDS011;8008;50.024;8.172;2022-08-19T15:58:05;6.78;;;6.07;;
15814;SDS011;8008;50.024;8.172;2022-08-19T16:00:54;7.43;;;6.47;;
15814;SDS011;8008;50.024;8.172;2022-08-19T16:03:42;6.22;;;5.63;;
15814;SDS011;8008;50.024;8.172;2022-08-19T16:06:29;6.93;;;6.18;;
15814;SDS011;8008;50.024;8.172;2022-08-19T16:08:57;6.57;;;6.00;;
15814;SDS011;8008;50.024;8.172;2022-08-19T16:11:29;6.97;;;6.28;;
15814;SDS011;8008;50.024;8.172;2022-08-19T16:14:05;6.43;;;5.88;;
15814;SDS011;8008;50.024;8.172;2022-08-19T16:16:34;9.60;;;6.10;;
15814;SDS011;8008;50.024;8.172;2022-08-19T16:19:05;8.38;;;6.78;;
15814;SDS011;8008;50.024;8.172;2022-08-19T16:21:38;6.85;;;6.25;;
15814;SDS011;8008;50.024;8.172;2022-08-19T16:24:07;7.43;;;6.60;;
15814;SDS011;8008;50.024;8.172;2022-08-19T16:26:38;7.70;;;6.78;;
15814;SDS011;8008;50.024;8.172;2022-08-19T16:29:06;9.57;;;6.28;;
15814;SDS011;8008;50.024;8.172;2022-08-19T16:31:39;7.40;;;5.95;;
15814;SDS011;8008;50.024;8.172;2022-08-19T16:34:10;6.57;;;5.70;;
15814;SDS011;8008;50.024;8.172;2022-08-19T16:36:39;6.53;;;5.93;;
15814;SDS011;8008;50.024;8.172;2022-08-19T16:39:08;7.10;;;6.40;;
15814;SDS011;8008;50.024;8.172;2022-08-19T16:41:37;6.47;;;5.88;;
15814;SDS011;8008;50.024;8.172;2022-08-19T16:44:06;8.98;;;6.40;;
15814;SDS011;8008;50.024;8.172;2022-08-19T16:46:35;7.72;;;6.20;;
15814;SDS011;8008;50.024;8.172;2022-08-19T16:49:08;9.52;;;5.75;;
15814;SDS011;8008;50.024;8.172;2022-08-19T16:51:38;5.45;;;5.05;;
15814;SDS011;8008;50.024;8.172;2022-08-19T16:54:06;6.55;;;5.15;;
15814;SDS011;8008;50.024;8.172;2022-08-19T16:56:35;7.18;;;5.93;;
15814;SDS011;8008;50.024;8.172;2022-08-19T16:59:03;6.70;;;5.47;;
15814;SDS011;8008;50.024;8.172;2022-08-19T17:01:31;6.35;;;5.40;;
15814;SDS011;8008;50.024;8.172;2022-08-19T17:03:59;5.85;;;5.35;;
15814;SDS011;8008;50.024;8.172;2022-08-19T17:06:29;6.00;;;5.35;;
15814;SDS011;8008;50.024;8.172;2022-08-19T17:08:57;6.28;;;5.72;;
15814;SDS011;8008;50.024;8.172;2022-08-19T17:11:27;6.65;;;5.95;;
15814;SDS011;8008;50.024;8.172;2022-08-19T17:13:56;6.72;;;6.13;;
15814;SDS011;8008;50.024;8.172;2022-08-19T17:16:25;6.18;;;5.57;;
15814;SDS011;8008;50.024;8.172;2022-08-19T17:18:55;6.38;;;5.78;;
15814;SDS011;8008;50.024;8.172;2022-08-19T17:21:26;7.78;;;6.25;;
15814;SDS011;8008;50.024;8.172;2022-08-19T17:23:56;7.10;;;6.40;;
15814;SDS011;8008;50.024;8.172;2022-08-19T17:26:25;7.55;;;6.78;;
15814;SDS011;8008;50.024;8.172;2022-08-19T17:28:54;6.93;;;6.05;;
15814;SDS011;8008;50.024;8.172;2022-08-19T17:31:24;6.10;;;5.53;;
15814;SDS011;8008;50.024;8.172;2022-08-19T17:33:53;7.28;;;6.53;;
15814;SDS011;8008;50.024;8.172;2022-08-19T17:36:23;6.18;;;5.57;;
15814;SDS011;8008;50.024;8.172;2022-08-19T17:38:55;6.90;;;6.20;;
15814;SDS011;8008;50.024;8.172;2022-08-19T17:41:27;6.95;;;6.22;;
15814;SDS011;8008;50.024;8.172;2022-08-19T17:43:55;8.07;;;6.63;;
15814;SDS011;8008;50.024;8.172;2022-08-19T17:46:24;8.40;;;6.22;;
15814;SDS011;8008;50.024;8.172;2022-08-19T17:48:52;7.70;;;6.65;;
15814;SDS011;8008;50.024;8.172;2022-08-19T17:51:23;7.85;;;6.60;;
15814;SDS011;8008;50.024;8.172;2022-08-19T17:54:07;6.82;;;5.75;;
15814;SDS011;8008;50.024;8.172;2022-08-19T17:56:35;8.10;;;6.60;;
15814;SDS011;8008;50.024;8.172;2022-08-19T17:59:04;7.72;;;6.93;;
15814;SDS011;8008;50.024;8.172;2022-08-19T18:01:39;7.07;;;6.30;;
15814;SDS011;8008;50.024;8.172;2022-08-19T18:04:20;8.93;;;6.85;;
15814;SDS011;8008;50.024;8.172;2022-08-19T18:06:49;7.68;;;6.90;;
15814;SDS011;8008;50.024;8.172;2022-08-19T18:09:22;7.25;;;6.50;;
15814;SDS011;8008;50.024;8.172;2022-08-19T18:11:52;8.35;;;7.18;;
15814;SDS011;8008;50.024;8.172;2022-08-19T18:14:20;8.57;;;6.93;;